sensor_id;sensor_type;location;lat;lon;timestamp;pressure;altitude;pressure_sealevel;temperature;humidity
60307;BME280;46155;52.364;6.580;2022-11-15T04:02:53;100526.75;;;9.04;100.00
60307;BME280;46155;52.364;6.580;2022-11-15T04:05:18;100525.13;;;9.06;100.00
60307;BME280;46155;52.364;6.580;2022-11-15T04:07:44;100531.28;;;9.07;100.00
60307;BME280;46155;52.364;6.580;2022-11-15T04:10:12;100531.34;;;9.08;100.00
60307;BME280;46155;52.364;6.580;2022-11-15T04:12:40;100523.72;;;9.11;100.00
60307;BME280;46155;52.364;6.580;2022-11-15T04:15:11;100529.84;;;9.12;100.00
60307;BME280;46155;52.364;6.580;2022-11-15T04:17:40;100530.22;;;9.18;100.00
60307;BME280;46155;52.364;6.580;2022-11-15T04:20:09;100539.09;;;9.20;100.00
60307;BME280;46155;52.364;6.580;2022-11-15T04:22:54;100542.88;;;9.25;100.00
60307;BME280;46155;52.364;6.580;2022-11-15T04:25:38;100536.84;;;9.26;100.00
60307;BME280;46155;52.364;6.580;2022-11-15T04:28:03;100536.22;;;9.30;100.00
60307;BME280;46155;52.364;6.580;2022-11-15T04:30:28;100529.56;;;9.36;100.00
60307;BME280;46155;52.364;6.580;2022-11-15T04:32:54;100540.03;;;9.36;100.00
60307;BME280;46155;52.364;6.580;2022-11-15T04:35:19;100541.84;;;9.37;100.00
60307;BME280;46155;52.364;6.580;2022-11-15T04:37:45;100541.84;;;9.37;100.00
60307;BME280;46155;52.364;6.580;2022-11-15T04:40:10;100549.06;;;9.41;100.00
60307;BME280;46155;52.364;6.580;2022-11-15T04:42:36;100549.06;;;9.41;100.00
60307;BME280;46155;52.364;6.580;2022-11-15T04:45:01;100550.97;;;9.43;100.00
60307;BME280;46155;52.364;6.580;2022-11-15T04:47:26;100558.13;;;9.46;100.00
60307;BME280;46155;52.364;6.580;2022-11-15T04:49:53;100555.59;;;9.47;100.00
60307;BME280;46155;52.364;6.580;2022-11-15T04:52:18;100551.34;;;9.50;100.00
60307;BME280;46155;52.364;6.580;2022-11-15T04:54:43;100550.63;;;9.52;100.00
60307;BME280;46155;52.364;6.580;2022-11-15T04:57:09;100553.25;;;9.52;100.00
60307;BME280;46155;52.364;6.580;2022-11-15T04:59:34;100562.13;;;9.54;100.00
60307;BME280;46155;52.364;6.580;2022-11-15T05:02:00;100561.28;;;9.55;100.00
60307;BME280;46155;52.364;6.580;2022-11-15T05:04:25;100560.50;;;9.56;100.00
60307;BME280;46155;52.364;6.580;2022-11-15T05:06:51;100562.50;;;9.60;100.00
60307;BME280;46155;52.364;6.580;2022-11-15T05:09:18;100557.25;;;9.60;100.00
60307;BME280;46155;52.364;6.580;2022-11-15T05:11:44;100544.16;;;9.60;100.00
60307;BME280;46155;52.364;6.580;2022-11-15T05:14:09;100557.59;;;9.67;100.00
60307;BME280;46155;52.364;6.580;2022-11-15T05:16:35;100550.84;;;9.70;100.00
60307;BME280;46155;52.364;6.580;2022-11-15T05:19:00;100551.03;;;9.73;100.00
60307;BME280;46155;52.364;6.580;2022-11-15T05:21:26;100545.88;;;9.75;100.00
60307;BME280;46155;52.364;6.580;2022-11-15T05:23:51;100537.22;;;9.76;100.00
60307;BME280;46155;52.364;6.580;2022-11-15T05:26:17;100540.63;;;9.75;100.00
60307;BME280;46155;52.364;6.580;2022-11-15T05:28:43;100538.19;;;9.78;100.00
60307;BME280;46155;52.364;6.580;2022-11-15T05:31:14;100528.72;;;9.80;100.00
60307;BME280;46155;52.364;6.580;2022-11-15T05:33:40;100532.13;;;9.79;100.00
60307;BME280;46155;52.364;6.580;2022-11-15T05:38:32;100528.88;;;9.83;100.00
60307;BME280;46155;52.364;6.580;2022-11-15T05:40:59;100532.50;;;9.85;100.00
60307;BME280;46155;52.364;6.580;2022-11-15T05:43:25;100534.31;;;9.86;100.00
60307;BME280;46155;52.364;6.580;2022-11-15T05:45:50;100527.63;;;9.91;100.00
60307;BME280;46155;52.364;6.580;2022-11-15T05:48:16;100530.34;;;9.93;100.00
60307;BME280;46155;52.364;6.580;2022-11-15T05:50:43;100529.63;;;9.95;100.00
60307;BME280;46155;52.364;6.580;2022-11-15T05:53:13;100535.75;;;9.96;100.00
60307;BME280;46155;52.364;6.580;2022-11-15T05:55:40;100527.00;;;9.95;100.00
60307;BME280;46155;52.364;6.580;2022-11-15T05:58:06;100524.72;;;10.02;100.00
60307;BME280;46155;52.364;6.580;2022-11-15T06:00:32;100528.16;;;10.00;100.00
60307;BME280;46155;52.364;6.580;2022-11-15T06:02:57;100533.59;;;10.04;100.00
60307;BME280;46155;52.364;6.580;2022-11-15T06:05:22;100530.31;;;10.08;100.00
60307;BME280;46155;52.364;6.580;2022-11-15T06:07:48;100543.44;;;10.08;100.00
60307;BME280;46155;52.364;6.580;2022-11-15T06:10:13;100538.38;;;10.11;100.00
60307;BME280;46155;52.364;6.580;2022-11-15T06:12:38;100540.19;;;10.12;100.00
60307;BME280;46155;52.364;6.580;2022-11-15T06:15:04;100524.19;;;10.07;100.00
60307;BME280;46155;52.364;6.580;2022-11-15T06:17:29;100543.00;;;10.15;100.00
60307;BME280;46155;52.364;6.580;2022-11-15T06:19:54;100538.72;;;10.17;100.00
60307;BME280;46155;52.364;6.580;2022-11-15T06:22:20;100542.25;;;10.17;100.00
60307;BME280;46155;52.364;6.580;2022-11-15T06:24:45;100544.97;;;10.19;100.00
60307;BME280;46155;52.364;6.580;2022-11-15T06:27:11;100541.34;;;10.17;100.00
60307;BME280;46155;52.364;6.580;2022-11-15T06:29:36;100538.09;;;10.21;100.00
60307;BME280;46155;52.364;6.580;2022-11-15T06:32:01;100544.31;;;10.23;100.00
60307;BME280;46155;52.364;6.580;2022-11-15T06:34:27;100545.34;;;10.25;100.00
60307;BME280;46155;52.364;6.580;2022-11-15T06:36:52;100552.41;;;10.26;100.00
60307;BME280;46155;52.364;6.580;2022-11-15T06:39:18;100556.97;;;10.30;100.00
60307;BME280;46155;52.364;6.580;2022-11-15T06:41:43;100550.94;;;10.31;100.00
60307;BME280;46155;52.364;6.580;2022-11-15T06:44:08;100553.56;;;10.31;100.00
60307;BME280;46155;52.364;6.580;2022-11-15T06:46:34;100556.38;;;10.34;100.00
60307;BME280;46155;52.364;6.580;2022-11-15T06:48:59;100565.34;;;10.38;100.00
60307;BME280;46155;52.364;6.580;2022-11-15T06:51:24;100565.59;;;10.43;100.00
60307;BME280;46155;52.364;6.580;2022-11-15T06:53:50;100567.41;;;10.44;100.00
60307;BME280;46155;52.364;6.580;2022-11-15T06:56:15;100569.41;;;10.48;100.00
60307;BME280;46155;52.364;6.580;2022-11-15T06:58:40;100572.28;;;10.53;100.00
60307;BME280;46155;52.364;6.580;2022-11-15T07:01:09;100576.66;;;10.52;100.00
60307;BME280;46155;52.364;6.580;2022-11-15T07:03:36;100580.16;;;10.53;100.00
60307;BME280;46155;52.364;6.580;2022-11-15T07:06:02;100578.63;;;10.56;100.00
60307;BME280;46155;52.364;6.580;2022-11-15T07:08:28;100586.31;;;10.53;100.00
60307;BME280;46155;52.364;6.580;2022-11-15T07:10:57;100592.72;;;10.58;100.00
60307;BME280;46155;52.364;6.580;2022-11-15T07:13:26;100584.06;;;10.59;100.00
60307;BME280;46155;52.364;6.580;2022-11-15T07:15:51;100586.59;;;10.58;100.00
60307;BME280;46155;52.364;6.580;2022-11-15T07:18:17;100589.47;;;10.62;100.00
60307;BME280;46155;52.364;6.580;2022-11-15T07:20:42;100585.03;;;10.61;100.00
60307;BME280;46155;52.364;6.580;2022-11-15T07:23:07;100585.09;;;10.63;100.00
60307;BME280;46155;52.364;6.580;2022-11-15T07:25:33;100584.22;;;10.62;100.00
60307;BME280;46155;52.364;6.580;2022-11-15T07:27:59;100589.63;;;10.65;100.00
60307;BME280;46155;52.364;6.580;2022-11-15T07:30:26;100590.66;;;10.67;100.00
60307;BME280;46155;52.364;6.580;2022-11-15T07:32:59;100587.25;;;10.70;100.00
60307;BME280;46155;52.364;6.580;2022-11-15T07:35:26;100586.53;;;10.73;100.00
60307;BME280;46155;52.364;6.580;2022-11-15T07:38:02;100581.13;;;10.70;100.00
60307;BME280;46155;52.364;6.580;2022-11-15T07:40:29;100581.13;;;10.70;100.00
60307;BME280;46155;52.364;6.580;2022-11-15T07:43:02;100582.09;;;10.72;100.00
60307;BME280;46155;52.364;6.580;2022-11-15T07:45:28;100574.22;;;10.72;100.00
60307;BME280;46155;52.364;6.580;2022-11-15T07:47:54;100588.34;;;10.74;100.00
60307;BME280;46155;52.364;6.580;2022-11-15T07:50:21;100583.91;;;10.73;100.00
60307;BME280;46155;52.364;6.580;2022-11-15T07:52:47;100586.53;;;10.73;100.00
60307;BME280;46155;52.364;6.580;2022-11-15T07:55:12;100593.59;;;10.74;100.00
60307;BME280;46155;52.364;6.580;2022-11-15T07:57:37;100598.84;;;10.74;100.00
60307;BME280;46155;52.364;6.580;2022-11-15T08:00:06;100600.59;;;10.73;100.00
60307;BME280;46155;52.364;6.580;2022-11-15T08:02:32;100592.72;;;10.73;100.00
60307;BME280;46155;52.364;6.580;2022-11-15T08:04:57;100594.50;;;10.74;100.00
60307;BME280;46155;52.364;6.580;2022-11-15T08:07:22;100591.97;;;10.76;100.00
60307;BME280;46155;52.364;6.580;2022-11-15T08:09:48;100586.91;;;10.79;100.00
60307;BME280;46155;52.364;6.580;2022-11-15T08:12:14;100596.66;;;10.81;100.00
60307;BME280;46155;52.364;6.580;2022-11-15T08:14:39;100585.09;;;10.78;100.00
60307;BME280;46155;52.364;6.580;2022-11-15T08:17:04;100587.97;;;10.82;100.00
60307;BME280;46155;52.364;6.580;2022-11-15T08:19:29;100585.41;;;10.84;100.00
60307;BME280;46155;52.364;6.580;2022-11-15T08:21:55;100584.44;;;10.82;100.00
60307;BME280;46155;52.364;6.580;2022-11-15T08:24:20;100586.16;;;10.81;100.00
60307;BME280;46155;52.364;6.580;2022-11-15T08:26:45;100582.47;;;10.78;100.00
60307;BME280;46155;52.364;6.580;2022-11-15T08:29:11;100582.63;;;10.81;100.00
60307;BME280;46155;52.364;6.580;2022-11-15T08:31:36;100572.22;;;10.82;100.00
60307;BME280;46155;52.364;6.580;2022-11-15T08:34:03;100574.91;;;10.84;100.00
60307;BME280;46155;52.364;6.580;2022-11-15T08:36:28;100563.44;;;10.82;100.00
60307;BME280;46155;52.364;6.580;2022-11-15T08:38:54;100574.84;;;10.82;100.00
60307;BME280;46155;52.364;6.580;2022-11-15T08:41:29;100570.47;;;10.83;100.00
60307;BME280;46155;52.364;6.580;2022-11-15T08:43:55;100563.53;;;10.83;100.00
60307;BME280;46155;52.364;6.580;2022-11-15T08:46:21;100555.72;;;10.85;100.00
60307;BME280;46155;52.364;6.580;2022-11-15T08:48:46;100562.78;;;10.86;100.00
60307;BME280;46155;52.364;6.580;2022-11-15T08:51:12;100546.84;;;10.83;100.00
60307;BME280;46155;52.364;6.580;2022-11-15T08:53:37;100556.69;;;10.87;100.00
60307;BME280;46155;52.364;6.580;2022-11-15T08:56:03;100560.41;;;10.91;100.00
60307;BME280;46155;52.364;6.580;2022-11-15T08:58:31;100563.13;;;10.92;100.00
60307;BME280;46155;52.364;6.580;2022-11-15T09:00:56;100562.41;;;10.95;100.00
60307;BME280;46155;52.364;6.580;2022-11-15T09:03:22;100557.06;;;10.93;100.00
60307;BME280;46155;52.364;6.580;2022-11-15T09:05:47;100565.59;;;10.89;100.00
60307;BME280;46155;52.364;6.580;2022-11-15T09:08:13;100555.72;;;10.85;100.00
60307;BME280;46155;52.364;6.580;2022-11-15T09:10:38;100559.97;;;10.83;100.00
60307;BME280;46155;52.364;6.580;2022-11-15T09:13:03;100559.97;;;10.83;100.00
60307;BME280;46155;52.364;6.580;2022-11-15T09:15:29;100551.94;;;10.80;100.00
60307;BME280;46155;52.364;6.580;2022-11-15T09:17:58;100543.41;;;10.84;100.00
60307;BME280;46155;52.364;6.580;2022-11-15T09:20:23;100551.38;;;10.85;100.00
60307;BME280;46155;52.364;6.580;2022-11-15T09:22:48;100546.13;;;10.85;100.00
60307;BME280;46155;52.364;6.580;2022-11-15T09:25:14;100550.47;;;10.85;100.00
60307;BME280;46155;52.364;6.580;2022-11-15T09:27:39;100543.66;;;10.89;100.00
60307;BME280;46155;52.364;6.580;2022-11-15T09:30:05;100539.47;;;10.92;100.00
60307;BME280;46155;52.364;6.580;2022-11-15T09:32:30;100539.56;;;10.94;100.00
60307;BME280;46155;52.364;6.580;2022-11-15T09:34:57;100545.72;;;10.94;100.00
60307;BME280;46155;52.364;6.580;2022-11-15T09:37:22;100542.44;;;10.98;100.00
60307;BME280;46155;52.364;6.580;2022-11-15T09:39:47;100553.03;;;11.00;100.00
60307;BME280;46155;52.364;6.580;2022-11-15T09:42:43;100542.44;;;10.98;100.00
60307;BME280;46155;52.364;6.580;2022-11-15T09:50:48;100551.50;;;11.03;100.00
60307;BME280;46155;52.364;6.580;2022-11-15T09:53:22;100555.09;;;11.06;100.00
60307;BME280;46155;52.364;6.580;2022-11-15T09:56:05;100554.13;;;11.03;100.00
60307;BME280;46155;52.364;6.580;2022-11-15T09:58:46;100554.19;;;11.05;100.00
60307;BME280;46155;52.364;6.580;2022-11-15T10:01:34;100559.78;;;11.11;100.00
60307;BME280;46155;52.364;6.580;2022-11-15T10:04:01;100552.16;;;11.16;100.00
60307;BME280;46155;52.364;6.580;2022-11-15T10:06:26;100550.09;;;11.10;100.00
60307;BME280;46155;52.364;6.580;2022-11-15T10:09:19;100544.28;;;11.16;100.00
60307;BME280;46155;52.364;6.580;2022-11-15T10:11:47;100544.28;;;11.16;100.00
60307;BME280;46155;52.364;6.580;2022-11-15T10:14:18;100548.69;;;11.17;100.00
60307;BME280;46155;52.364;6.580;2022-11-15T10:22:50;100544.91;;;11.28;100.00
60307;BME280;46155;52.364;6.580;2022-11-15T10:25:22;100539.09;;;11.17;100.00
60307;BME280;46155;52.364;6.580;2022-11-15T10:27:58;100534.75;;;11.18;100.00
60307;BME280;46155;52.364;6.580;2022-11-15T10:30:32;100531.16;;;11.16;100.00
60307;BME280;46155;52.364;6.580;2022-11-15T10:32:57;100530.50;;;11.20;100.00
60307;BME280;46155;52.364;6.580;2022-11-15T10:35:26;100533.28;;;11.23;100.00
60307;BME280;46155;52.364;6.580;2022-11-15T10:38:07;100529.66;;;11.21;100.00
60307;BME280;46155;52.364;6.580;2022-11-15T10:40:32;100519.31;;;11.24;100.00
60307;BME280;46155;52.364;6.580;2022-11-15T10:43:05;100521.78;;;11.37;100.00
60307;BME280;46155;52.364;6.580;2022-11-15T10:45:38;100506.97;;;11.56;100.00
60307;BME280;46155;52.364;6.580;2022-11-15T10:50:44;100499.06;;;11.91;100.00
60307;BME280;46155;52.364;6.580;2022-11-15T10:53:32;100502.28;;;12.01;100.00
60307;BME280;46155;52.364;6.580;2022-11-15T10:56:05;100493.84;;;12.09;100.00
60307;BME280;46155;52.364;6.580;2022-11-15T11:01:11;100489.22;;;12.21;100.00
60307;BME280;46155;52.364;6.580;2022-11-15T11:03:38;100489.34;;;12.24;100.00
60307;BME280;46155;52.364;6.580;2022-11-15T11:08:34;100473.84;;;12.48;100.00
60307;BME280;46155;52.364;6.580;2022-11-15T11:11:01;100481.81;;;12.50;100.00
60307;BME280;46155;52.364;6.580;2022-11-15T11:13:28;100486.66;;;12.40;100.00
60307;BME280;46155;52.364;6.580;2022-11-15T11:16:14;100484.84;;;12.39;100.00
60307;BME280;46155;52.364;6.580;2022-11-15T11:21:52;100470.69;;;12.37;100.00
60307;BME280;46155;52.364;6.580;2022-11-15T11:27:28;100465.00;;;12.28;100.00
60307;BME280;46155;52.364;6.580;2022-11-15T11:30:34;100464.19;;;12.29;100.00
60307;BME280;46155;52.364;6.580;2022-11-15T11:33:30;100466.03;;;12.32;100.00
60307;BME280;46155;52.364;6.580;2022-11-15T11:36:04;100458.38;;;12.36;100.00
60307;BME280;46155;52.364;6.580;2022-11-15T11:38:57;100451.56;;;12.42;100.00
60307;BME280;46155;52.364;6.580;2022-11-15T11:46:59;100441.91;;;12.40;96.74
60307;BME280;46155;52.364;6.580;2022-11-15T11:49:47;100428.56;;;12.37;96.47
60307;BME280;46155;52.364;6.580;2022-11-15T11:52:19;100430.50;;;12.42;97.60
60307;BME280;46155;52.364;6.580;2022-11-15T11:55:05;100439.41;;;12.44;97.36
60307;BME280;46155;52.364;6.580;2022-11-15T12:00:29;100431.66;;;12.47;92.55
60307;BME280;46155;52.364;6.580;2022-11-15T12:03:13;100445.78;;;12.49;93.20
60307;BME280;46155;52.364;6.580;2022-11-15T12:05:40;100429.69;;;12.43;92.23
60307;BME280;46155;52.364;6.580;2022-11-15T12:10:57;100429.03;;;12.29;90.18
60307;BME280;46155;52.364;6.580;2022-11-15T12:13:26;100429.16;;;12.32;89.15
60307;BME280;46155;52.364;6.580;2022-11-15T12:16:05;100440.03;;;12.38;88.37
60307;BME280;46155;52.364;6.580;2022-11-15T12:18:32;100422.28;;;12.34;87.98
60307;BME280;46155;52.364;6.580;2022-11-15T12:21:06;100422.63;;;12.42;88.52
60307;BME280;46155;52.364;6.580;2022-11-15T12:23:39;100421.94;;;12.46;88.48
60307;BME280;46155;52.364;6.580;2022-11-15T12:26:10;100422.00;;;12.47;87.60
60307;BME280;46155;52.364;6.580;2022-11-15T12:28:59;100428.06;;;12.64;86.58
60307;BME280;46155;52.364;6.580;2022-11-15T12:31:44;100414.69;;;12.60;86.80
60307;BME280;46155;52.364;6.580;2022-11-15T12:36:45;100420.97;;;12.44;81.19
60307;BME280;46155;52.364;6.580;2022-11-15T12:39:12;100418.34;;;12.44;82.62
60307;BME280;46155;52.364;6.580;2022-11-15T12:59:55;100386.16;;;12.31;85.26
60307;BME280;46155;52.364;6.580;2022-11-15T13:02:37;100381.03;;;12.34;85.73
60307;BME280;46155;52.364;6.580;2022-11-15T13:17:42;100354.31;;;12.25;84.24
60307;BME280;46155;52.364;6.580;2022-11-15T13:28:44;100348.91;;;12.22;84.93
60307;BME280;46155;52.364;6.580;2022-11-15T13:33:48;100327.94;;;12.23;86.11
60307;BME280;46155;52.364;6.580;2022-11-15T13:36:20;100330.91;;;12.31;86.61
60307;BME280;46155;52.364;6.580;2022-11-15T13:38:55;100313.09;;;12.26;87.32
60307;BME280;46155;52.364;6.580;2022-11-15T13:41:45;100321.19;;;12.30;87.33
60307;BME280;46155;52.364;6.580;2022-11-15T13:44:40;100315.66;;;12.24;87.12
60307;BME280;46155;52.364;6.580;2022-11-15T13:47:09;100312.47;;;12.31;87.32
60307;BME280;46155;52.364;6.580;2022-11-15T13:49:37;100310.72;;;12.32;86.87
60307;BME280;46155;52.364;6.580;2022-11-15T13:52:06;100310.47;;;12.26;87.09
60307;BME280;46155;52.364;6.580;2022-11-15T13:55:02;100301.75;;;12.27;86.99
60307;BME280;46155;52.364;6.580;2022-11-15T13:57:39;100301.69;;;12.25;86.43
60307;BME280;46155;52.364;6.580;2022-11-15T14:00:25;100295.41;;;12.23;87.15
60307;BME280;46155;52.364;6.580;2022-11-15T14:02:51;100302.91;;;12.14;86.66
60307;BME280;46155;52.364;6.580;2022-11-15T14:05:20;100292.59;;;12.18;87.21
60307;BME280;46155;52.364;6.580;2022-11-15T14:08:01;100289.75;;;12.14;86.26
60307;BME280;46155;52.364;6.580;2022-11-15T14:10:35;100287.06;;;12.12;85.93
60307;BME280;46155;52.364;6.580;2022-11-15T14:13:03;100279.78;;;12.07;85.00
60307;BME280;46155;52.364;6.580;2022-11-15T14:15:37;100288.00;;;12.14;85.36
60307;BME280;46155;52.364;6.580;2022-11-15T14:18:03;100291.47;;;12.13;84.69
60307;BME280;46155;52.364;6.580;2022-11-15T14:20:36;100291.94;;;12.04;84.59
60307;BME280;46155;52.364;6.580;2022-11-15T14:23:04;100286.69;;;12.04;84.40
60307;BME280;46155;52.364;6.580;2022-11-15T14:25:34;100275.28;;;12.04;84.04
60307;BME280;46155;52.364;6.580;2022-11-15T14:28:29;100279.78;;;12.07;83.37
60307;BME280;46155;52.364;6.580;2022-11-15T14:30:57;100283.09;;;12.02;83.62
60307;BME280;46155;52.364;6.580;2022-11-15T14:33:33;100279.34;;;11.97;83.19
60307;BME280;46155;52.364;6.580;2022-11-15T14:36:13;100280.81;;;11.92;83.00
60307;BME280;46155;52.364;6.580;2022-11-15T14:38:38;100275.75;;;11.95;82.71
60307;BME280;46155;52.364;6.580;2022-11-15T14:41:04;100266.84;;;11.93;82.39
60307;BME280;46155;52.364;6.580;2022-11-15T14:43:31;100259.34;;;11.83;80.24
60307;BME280;46155;52.364;6.580;2022-11-15T14:45:56;100266.63;;;11.88;79.48
60307;BME280;46155;52.364;6.580;2022-11-15T14:48:21;100267.66;;;11.92;79.37
60307;BME280;46155;52.364;6.580;2022-11-15T14:50:47;100255.28;;;11.89;78.92
60307;BME280;46155;52.364;6.580;2022-11-15T14:53:17;100244.25;;;11.79;79.26
60307;BME280;46155;52.364;6.580;2022-11-15T14:55:43;100247.88;;;11.81;79.45
60307;BME280;46155;52.364;6.580;2022-11-15T14:58:08;100241.56;;;11.77;79.51
60307;BME280;46155;52.364;6.580;2022-11-15T15:00:35;100240.72;;;11.78;79.95
60307;BME280;46155;52.364;6.580;2022-11-15T15:03:01;100240.81;;;11.80;80.16
60307;BME280;46155;52.364;6.580;2022-11-15T15:07:58;100220.44;;;11.76;79.67
60307;BME280;46155;52.364;6.580;2022-11-15T15:10:24;100216.69;;;11.70;80.05
60307;BME280;46155;52.364;6.580;2022-11-15T15:12:50;100218.50;;;11.71;80.03
60307;BME280;46155;52.364;6.580;2022-11-15T15:15:23;100213.03;;;11.67;78.97
60307;BME280;46155;52.364;6.580;2022-11-15T15:17:49;100211.16;;;11.64;78.46
60307;BME280;46155;52.364;6.580;2022-11-15T15:20:15;100196.94;;;11.61;78.66
60307;BME280;46155;52.364;6.580;2022-11-15T15:22:40;100211.97;;;11.63;78.48
60307;BME280;46155;52.364;6.580;2022-11-15T15:25:28;100195.94;;;11.57;77.67
60307;BME280;46155;52.364;6.580;2022-11-15T15:27:54;100200.19;;;11.55;78.28
60307;BME280;46155;52.364;6.580;2022-11-15T15:30:21;100194.06;;;11.54;78.11
60307;BME280;46155;52.364;6.580;2022-11-15T15:32:47;100193.97;;;11.53;76.86
60307;BME280;46155;52.364;6.580;2022-11-15T15:35:14;100188.34;;;11.45;77.16
60307;BME280;46155;52.364;6.580;2022-11-15T15:37:40;100188.44;;;11.47;77.17
60307;BME280;46155;52.364;6.580;2022-11-15T15:40:27;100182.19;;;11.45;76.81
60307;BME280;46155;52.364;6.580;2022-11-15T15:42:52;100175.97;;;11.43;76.11
60307;BME280;46155;52.364;6.580;2022-11-15T15:45:18;100173.34;;;11.43;76.41
60307;BME280;46155;52.364;6.580;2022-11-15T15:47:44;100173.50;;;11.46;76.48
60307;BME280;46155;52.364;6.580;2022-11-15T15:50:31;100160.34;;;11.46;76.22
60307;BME280;46155;52.364;6.580;2022-11-15T15:52:59;100164.63;;;11.44;76.11
60307;BME280;46155;52.364;6.580;2022-11-15T15:55:25;100156.81;;;11.45;76.23
60307;BME280;46155;52.364;6.580;2022-11-15T15:57:50;100156.81;;;11.45;75.95
60307;BME280;46155;52.364;6.580;2022-11-15T16:00:17;100155.97;;;11.46;75.82
60307;BME280;46155;52.364;6.580;2022-11-15T16:02:43;100145.25;;;11.42;75.80
60307;BME280;46155;52.364;6.580;2022-11-15T16:05:09;100148.16;;;11.48;75.41
60307;BME280;46155;52.364;6.580;2022-11-15T16:07:35;100142.84;;;11.46;76.11
60307;BME280;46155;52.364;6.580;2022-11-15T16:10:04;100137.66;;;11.48;75.76
60307;BME280;46155;52.364;6.580;2022-11-15T16:12:39;100136.97;;;11.52;75.56
60307;BME280;46155;52.364;6.580;2022-11-15T16:15:04;100135.94;;;11.48;75.40
60307;BME280;46155;52.364;6.580;2022-11-15T16:17:33;100127.13;;;11.48;75.17
60307;BME280;46155;52.364;6.580;2022-11-15T16:19:59;100112.06;;;11.44;75.63
60307;BME280;46155;52.364;6.580;2022-11-15T16:22:25;100123.69;;;11.49;75.38
60307;BME280;46155;52.364;6.580;2022-11-15T16:24:50;100112.34;;;11.50;74.54
60307;BME280;46155;52.364;6.580;2022-11-15T16:27:18;100116.88;;;11.52;74.91
60307;BME280;46155;52.364;6.580;2022-11-15T16:29:45;100115.94;;;11.52;74.58
60307;BME280;46155;52.364;6.580;2022-11-15T16:32:10;100118.56;;;11.52;74.84
60307;BME280;46155;52.364;6.580;2022-11-15T16:34:36;100107.31;;;11.54;74.28
60307;BME280;46155;52.364;6.580;2022-11-15T16:37:01;100103.34;;;11.45;74.33
60307;BME280;46155;52.364;6.580;2022-11-15T16:39:26;100104.53;;;11.51;74.85
60307;BME280;46155;52.364;6.580;2022-11-15T16:41:55;100103.47;;;11.48;74.26
60307;BME280;46155;52.364;6.580;2022-11-15T16:44:21;100102.59;;;11.47;73.55
60307;BME280;46155;52.364;6.580;2022-11-15T16:46:47;100094.66;;;11.46;74.12
60307;BME280;46155;52.364;6.580;2022-11-15T16:49:17;100098.22;;;11.48;73.94
60307;BME280;46155;52.364;6.580;2022-11-15T16:51:45;100096.59;;;11.50;74.11
60307;BME280;46155;52.364;6.580;2022-11-15T16:54:10;100093.81;;;11.47;73.58
60307;BME280;46155;52.364;6.580;2022-11-15T16:56:37;100091.25;;;11.48;73.81
60307;BME280;46155;52.364;6.580;2022-11-15T16:59:03;100095.53;;;11.46;73.91
60307;BME280;46155;52.364;6.580;2022-11-15T17:01:33;100093.72;;;11.45;73.99
60307;BME280;46155;52.364;6.580;2022-11-15T17:04:10;100071.69;;;11.42;73.88
60307;BME280;46155;52.364;6.580;2022-11-15T17:06:40;100089.53;;;11.49;74.46
60307;BME280;46155;52.364;6.580;2022-11-15T17:09:10;100091.19;;;11.47;74.70
60307;BME280;46155;52.364;6.580;2022-11-15T17:11:36;100084.41;;;11.52;74.69
60307;BME280;46155;52.364;6.580;2022-11-15T17:14:02;100081.06;;;11.56;74.87
60307;BME280;46155;52.364;6.580;2022-11-15T17:16:27;100070.44;;;11.53;74.66
60307;BME280;46155;52.364;6.580;2022-11-15T17:18:52;100067.25;;;11.60;74.72
60307;BME280;46155;52.364;6.580;2022-11-15T17:21:20;100075.94;;;11.59;75.23
60307;BME280;46155;52.364;6.580;2022-11-15T17:23:46;100067.25;;;11.60;75.41
60307;BME280;46155;52.364;6.580;2022-11-15T17:26:13;100054.16;;;11.62;75.92
60307;BME280;46155;52.364;6.580;2022-11-15T17:28:39;100062.00;;;11.60;76.35
60307;BME280;46155;52.364;6.580;2022-11-15T17:31:10;100064.75;;;11.63;76.17
60307;BME280;46155;52.364;6.580;2022-11-15T17:33:37;100054.53;;;11.69;76.28
60307;BME280;46155;52.364;6.580;2022-11-15T17:36:06;100057.16;;;11.69;76.69
60307;BME280;46155;52.364;6.580;2022-11-15T17:38:31;100052.91;;;11.73;76.50
60307;BME280;46155;52.364;6.580;2022-11-15T17:41:01;100043.44;;;11.77;76.62
60307;BME280;46155;52.364;6.580;2022-11-15T17:43:29;100032.75;;;11.74;77.03
60307;BME280;46155;52.364;6.580;2022-11-15T17:45:54;100034.69;;;11.78;76.92
60307;BME280;46155;52.364;6.580;2022-11-15T17:48:19;100041.75;;;11.79;77.07
60307;BME280;46155;52.364;6.580;2022-11-15T17:50:54;100043.56;;;11.80;77.36
60307;BME280;46155;52.364;6.580;2022-11-15T17:53:20;100034.97;;;11.84;77.32
60307;BME280;46155;52.364;6.580;2022-11-15T17:55:45;100032.22;;;11.81;77.71
60307;BME280;46155;52.364;6.580;2022-11-15T17:58:10;100031.38;;;11.82;77.79
60307;BME280;46155;52.364;6.580;2022-11-15T18:00:35;100027.28;;;11.88;77.81
60307;BME280;46155;52.364;6.580;2022-11-15T18:03:02;100033.94;;;11.80;78.03
60307;BME280;46155;52.364;6.580;2022-11-15T18:05:27;100032.34;;;11.84;77.31
60307;BME280;46155;52.364;6.580;2022-11-15T18:07:52;100042.19;;;11.88;78.05
60307;BME280;46155;52.364;6.580;2022-11-15T18:10:17;100042.19;;;11.88;78.28
60307;BME280;46155;52.364;6.580;2022-11-15T18:12:43;100044.47;;;11.80;78.17
60307;BME280;46155;52.364;6.580;2022-11-15T18:15:08;100036.75;;;11.85;78.37
60307;BME280;46155;52.364;6.580;2022-11-15T18:17:33;100040.50;;;11.90;78.65
60307;BME280;46155;52.364;6.580;2022-11-15T18:19:58;100029.97;;;11.90;78.12
60307;BME280;46155;52.364;6.580;2022-11-15T18:22:24;100043.06;;;11.88;78.58